Terminal Aerodrome Forecast
Issued by NWS

Home | Current Version | Previous Version | Text Only | Print | Product List | Glossary Off
Versions: 1 2 3 4 5 6 7 8 9 10 11 12 13 14 15 16 17 18 19 20 21 22 23 24 25 26 27 28 29 30 31 32 33 34

238
FTUS43 KLOT 172057 AAB
TAFORD
TAF AMD
KORD 172057Z 1721/1824 27010KT 4SM BR OVC007
     FM172200 27008KT 3SM -DZ BR OVC004
      TEMPO 1722/1802 2SM -SHRA BR
     FM180600 27007KT 4SM BR SCT004 OVC006
     FM181600 24012KT P6SM SCT020=

USA.gov is the U.S. government's official web portal to all federal, state and local government web resources and services.